createdAt,value
2019-04-07T00:00:55.364Z,71.25
2019-04-07T00:03:24.924Z,70.35
2019-04-07T00:05:54.991Z,67.32
2019-04-07T00:08:24.488Z,67.15
2019-04-07T00:10:53.836Z,66.60
2019-04-07T00:13:23.251Z,68.33
2019-04-07T00:15:52.534Z,67.55
2019-04-07T00:18:22.408Z,68.37
2019-04-07T00:20:52.172Z,63.20
2019-04-07T00:23:24.738Z,70.40
2019-04-07T00:25:54.101Z,69.37
2019-04-07T00:28:23.545Z,65.57
2019-04-07T00:30:53.009Z,65.22
2019-04-07T00:33:22.289Z,64.90
2019-04-07T00:35:52.060Z,70.15
2019-04-07T00:38:21.635Z,67.08
2019-04-07T00:40:51.014Z,66.05
2019-04-07T00:43:20.911Z,70.25
2019-04-07T00:45:50.911Z,64.45
2019-04-07T00:48:21.136Z,65.75
2019-04-07T00:50:50.612Z,64.95
2019-04-07T00:53:20.073Z,67.55
2019-04-07T00:55:49.675Z,66.45
2019-04-07T00:58:19.220Z,63.87
2019-04-07T01:00:48.993Z,70.20
2019-04-07T01:03:18.670Z,61.65
2019-04-07T01:05:47.991Z,70.28
2019-04-07T01:08:17.308Z,62.83
2019-04-07T01:10:47.004Z,68.52
2019-04-07T01:13:16.600Z,69.77
2019-04-07T01:15:46.084Z,66.55
2019-04-07T01:18:15.453Z,66.87
2019-04-07T01:20:45.174Z,69.27
2019-04-07T01:26:26.640Z,69.25
2019-04-07T01:28:55.906Z,65.47
2019-04-07T01:31:25.211Z,65.50
2019-04-07T01:33:54.577Z,65.12
2019-04-07T01:36:23.888Z,69.60
2019-04-07T01:38:53.486Z,67.05
2019-04-07T01:41:24.491Z,63.40
2019-04-07T01:44:01.387Z,62.05
2019-04-07T01:46:41.542Z,61.77
2019-04-07T01:49:15.035Z,63.83
2019-04-07T01:51:46.537Z,61.45
2019-04-07T01:54:23.203Z,57.65
2019-04-07T01:57:10.510Z,63.45
2019-04-07T01:59:58.332Z,65.72
2019-04-07T02:02:29.285Z,62.23
2019-04-07T02:05:03.415Z,62.73
2019-04-07T02:07:51.279Z,63.35
2019-04-07T02:10:37.216Z,60.65
2019-04-07T02:13:11.148Z,59.20
2019-04-07T02:15:45.033Z,61.98
2019-04-07T02:18:32.920Z,61.35
2019-04-07T02:21:04.409Z,60.90
2019-04-07T02:23:48.163Z,63.75
2019-04-07T02:26:19.367Z,65.50
2019-04-07T02:28:50.413Z,64.70
2019-04-07T02:31:38.258Z,68.57
2019-04-07T02:34:09.537Z,66.92
2019-04-07T02:36:56.056Z,61.73
2019-04-07T02:39:30.014Z,63.13
2019-04-07T02:42:01.042Z,67.17
2019-04-07T02:44:40.970Z,57.62
2019-04-07T02:47:14.807Z,62.70
2019-04-07T02:49:48.721Z,61.58
2019-04-07T02:52:34.571Z,62.93
2019-04-07T02:55:24.093Z,60.45
2019-04-07T02:57:55.094Z,67.78
2019-04-07T03:00:32.199Z,60.73
2019-04-07T03:03:20.085Z,63.23
2019-04-07T03:05:51.288Z,58.83
2019-04-07T03:08:38.341Z,57.67
2019-04-07T03:11:12.214Z,66.77
2019-04-07T03:13:46.480Z,58.70
2019-04-07T03:16:29.379Z,57.35
2019-04-07T03:19:00.309Z,59.63
2019-04-07T03:21:40.380Z,58.87
2019-04-07T03:24:26.640Z,59.60
2019-04-07T03:27:15.821Z,59.88
2019-04-07T03:29:47.145Z,60.58
2019-04-07T03:32:35.519Z,61.95
2019-04-07T03:35:26.477Z,56.02
2019-04-07T03:38:08.966Z,56.58
2019-04-07T03:40:55.146Z,64.45
2019-04-07T03:43:29.111Z,63.58
2019-04-07T03:46:06.136Z,59.18
2019-04-07T03:48:46.056Z,57.13
2019-04-07T03:51:20.322Z,54.98
2019-04-07T03:54:00.655Z,60.43
2019-04-07T03:56:37.721Z,56.65
2019-04-07T03:59:08.833Z,57.62
2019-04-07T04:01:39.687Z,59.67
2019-04-07T04:04:22.482Z,56.63
2019-04-07T04:07:00.135Z,59.55
2019-04-07T04:09:43.013Z,58.35
2019-04-07T04:12:20.023Z,54.60
2019-04-07T04:15:06.765Z,55.98
2019-04-07T04:17:37.036Z,59.70
2019-04-07T04:20:08.487Z,64.12
2019-04-07T04:22:38.283Z,57.98
2019-04-07T04:25:09.318Z,57.60
2019-04-07T04:27:39.155Z,58.75
2019-04-07T04:30:12.153Z,55.58
2019-04-07T04:32:41.840Z,55.33
2019-04-07T04:35:12.426Z,58.87
2019-04-07T04:37:48.329Z,55.40
2019-04-07T04:40:14.125Z,54.93
2019-04-07T04:42:44.370Z,53.87
2019-04-07T04:45:14.145Z,57.00
2019-04-07T04:47:43.509Z,54.33
2019-04-07T04:50:13.045Z,57.95
2019-04-07T04:52:45.565Z,55.92
2019-04-07T04:55:15.359Z,59.23
2019-04-07T04:57:45.830Z,59.42
2019-04-07T05:00:15.880Z,54.10
2019-04-07T05:02:45.704Z,53.33
2019-04-07T05:05:15.246Z,54.67
2019-04-07T05:07:57.164Z,54.80
2019-04-07T05:10:19.246Z,52.83
2019-04-07T05:12:48.976Z,56.83
2019-04-07T05:15:18.323Z,51.85
2019-04-07T05:17:47.632Z,58.60
2019-04-07T05:20:17.319Z,54.93
2019-04-07T05:22:47.508Z,49.63
2019-04-07T05:25:17.439Z,54.18
2019-04-07T05:27:46.737Z,54.25
2019-04-07T05:30:16.994Z,56.50
2019-04-07T05:32:46.911Z,56.13
2019-04-07T05:35:16.430Z,56.55
2019-04-07T05:37:45.985Z,56.60
2019-04-07T05:40:15.555Z,55.78
2019-04-07T05:42:45.476Z,52.85
2019-04-07T05:45:15.058Z,51.60
2019-04-07T05:47:48.717Z,56.00
2019-04-07T05:50:16.589Z,55.35
2019-04-07T05:52:46.585Z,53.02
2019-04-07T05:55:16.202Z,54.08
2019-04-07T05:57:45.490Z,50.65
2019-04-07T06:00:16.632Z,55.58
2019-04-07T06:02:46.953Z,54.75
2019-04-07T06:05:17.727Z,54.90
2019-04-07T06:07:47.897Z,57.35
2019-04-07T06:10:18.344Z,57.25
2019-04-07T06:13:32.928Z,61.45
2019-04-07T06:15:33.491Z,54.40
2019-04-07T06:18:34.071Z,62.48
2019-04-07T06:21:02.771Z,58.25
2019-04-07T06:23:32.053Z,64.47
2019-04-07T06:26:09.141Z,60.35
2019-04-07T06:28:35.431Z,60.73
2019-04-07T06:31:06.520Z,60.58
2019-04-07T06:33:38.084Z,60.65
2019-04-07T06:36:06.922Z,63.17
2019-04-07T06:38:41.570Z,63.48
2019-04-07T06:41:07.397Z,58.42
2019-04-07T06:43:38.461Z,58.28
2019-04-07T06:46:22.616Z,62.65
2019-04-07T06:49:00.401Z,54.30
2019-04-07T06:51:46.655Z,57.20
2019-04-07T06:54:22.191Z,57.75
2019-04-07T06:56:59.078Z,61.50
2019-04-07T06:59:36.002Z,61.37
2019-04-07T07:02:15.725Z,60.20
2019-04-07T07:04:47.085Z,58.10
2019-04-07T07:07:36.394Z,57.93
2019-04-07T07:10:12.636Z,52.73
2019-04-07T07:12:45.072Z,55.75
2019-04-07T07:15:28.381Z,54.63
2019-04-07T07:18:08.989Z,57.08
2019-04-07T07:20:42.971Z,54.70
2019-04-07T07:23:14.963Z,53.68
2019-04-07T07:25:45.446Z,52.10
2019-04-07T07:28:14.802Z,52.27
2019-04-07T07:30:45.291Z,53.25
2019-04-07T07:33:14.871Z,50.90
2019-04-07T07:35:48.800Z,51.45
2019-04-07T07:38:15.544Z,52.73
2019-04-07T07:40:47.698Z,52.27
2019-04-07T07:43:17.618Z,49.55
2019-04-07T07:45:48.274Z,51.73
2019-04-07T07:48:18.392Z,51.45
2019-04-07T07:50:48.729Z,51.33
2019-04-07T07:53:19.167Z,53.13
2019-04-07T07:55:49.776Z,54.08
2019-04-07T07:58:19.386Z,50.83
2019-04-07T08:00:48.966Z,54.63
2019-04-07T08:03:18.918Z,52.25
2019-04-07T08:05:49.622Z,49.25
2019-04-07T08:08:18.933Z,53.23
2019-04-07T08:10:48.287Z,49.08
2019-04-07T08:13:17.902Z,49.55
2019-04-07T08:15:47.464Z,51.00
2019-04-07T08:18:19.625Z,51.85
2019-04-07T08:20:48.990Z,45.17
2019-04-07T08:23:18.735Z,50.03
2019-04-07T08:25:48.920Z,47.40
2019-04-07T08:28:19.759Z,46.05
2019-04-07T08:30:50.180Z,46.45
2019-04-07T08:33:20.210Z,48.83
2019-04-07T08:35:50.202Z,44.58
2019-04-07T08:38:23.549Z,46.40
2019-04-07T08:40:52.045Z,44.38
2019-04-07T08:43:23.426Z,47.60
2019-04-07T08:45:53.595Z,52.08
2019-04-07T08:48:23.191Z,44.30
2019-04-07T08:50:52.853Z,38.38
2019-04-07T08:53:22.908Z,40.08
2019-04-07T08:55:54.722Z,40.00
2019-04-07T08:58:27.458Z,34.33
2019-04-07T09:00:56.167Z,31.12
2019-04-07T09:03:29.146Z,32.83
2019-04-07T09:05:58.733Z,34.85
2019-04-07T09:08:28.058Z,35.40
2019-04-07T09:11:11.212Z,37.48
2019-04-07T09:13:43.051Z,37.30
2019-04-07T09:16:22.601Z,35.83
2019-04-07T09:19:09.552Z,35.80
2019-04-07T09:21:49.526Z,30.77
2019-04-07T09:24:35.951Z,31.50
2019-04-07T09:27:12.032Z,31.33
2019-04-07T09:29:55.788Z,29.92
2019-04-07T09:32:43.851Z,30.68
2019-04-07T09:35:26.477Z,30.97
2019-04-07T09:38:12.616Z,30.85
2019-04-07T09:40:48.415Z,31.97
2019-04-07T09:43:19.941Z,31.60
2019-04-07T09:45:53.998Z,37.05
2019-04-07T09:48:34.048Z,34.80
2019-04-07T09:51:11.187Z,35.17
2019-04-07T09:53:42.228Z,31.73
2019-04-07T09:56:31.752Z,38.48
2019-04-07T09:59:20.372Z,40.17
2019-04-07T10:01:57.049Z,37.20
2019-04-07T10:04:53.228Z,40.23
2019-04-07T10:07:27.094Z,32.00
2019-04-07T10:10:10.076Z,26.68
2019-04-07T10:12:36.380Z,29.95
2019-04-07T10:15:25.706Z,26.75
2019-04-07T10:18:02.355Z,26.33
2019-04-07T10:20:33.706Z,32.38
2019-04-07T10:23:05.215Z,33.30
2019-04-07T10:25:45.550Z,33.30
2019-04-07T10:28:16.793Z,30.45
2019-04-07T10:30:59.954Z,37.40
2019-04-07T10:33:34.363Z,33.28
2019-04-07T10:36:21.669Z,29.37
2019-04-07T10:38:52.553Z,30.00
2019-04-07T10:41:39.825Z,31.15
2019-04-07T10:44:29.241Z,32.15
2019-04-07T10:47:19.293Z,27.77
2019-04-07T10:50:02.403Z,25.88
2019-04-07T10:52:26.118Z,30.45
2019-04-07T10:55:14.183Z,25.80
2019-04-07T10:58:01.662Z,22.93
2019-04-07T11:00:51.005Z,27.25
2019-04-07T11:03:22.931Z,23.80
2019-04-07T11:06:06.041Z,25.82
2019-04-07T11:08:53.560Z,22.30
2019-04-07T11:11:27.425Z,22.85
2019-04-07T11:14:14.597Z,22.82
2019-04-07T11:17:01.464Z,29.23
2019-04-07T11:19:50.089Z,22.77
2019-04-07T11:22:37.155Z,23.30
2019-04-07T11:25:19.109Z,18.10
2019-04-07T11:27:52.879Z,20.40
2019-04-07T11:30:38.741Z,21.33
2019-04-07T11:33:09.672Z,21.75
2019-04-07T11:35:44.382Z,22.07
2019-04-07T11:38:19.700Z,22.00
2019-04-07T11:41:13.091Z,20.90
2019-04-07T11:43:53.383Z,18.85
2019-04-07T11:46:24.408Z,18.50
2019-04-07T11:49:04.543Z,19.65
2019-04-07T11:51:38.853Z,17.98
2019-04-07T11:54:22.092Z,19.40
2019-04-07T11:56:56.550Z,20.75
2019-04-07T11:59:44.769Z,22.62
2019-04-07T12:02:19.828Z,17.27
2019-04-07T12:05:08.189Z,17.42
2019-04-07T12:07:42.245Z,16.10
2019-04-07T12:10:16.435Z,21.00
2019-04-07T12:12:48.297Z,19.50
2019-04-07T12:15:35.246Z,19.57
2019-04-07T12:18:22.322Z,17.30
2019-04-07T12:20:56.262Z,19.90
2019-04-07T12:23:45.178Z,19.55
2019-04-07T12:26:17.086Z,16.85
2019-04-07T12:29:03.268Z,18.87
2019-04-07T12:31:34.753Z,19.35
2019-04-07T12:34:09.540Z,16.85
2019-04-07T12:36:38.721Z,15.38
2019-04-07T12:39:20.214Z,19.45
2019-04-07T12:42:04.392Z,15.00
2019-04-07T12:44:39.894Z,14.18
2019-04-07T12:47:14.563Z,15.88
2019-04-07T12:49:46.911Z,14.50
2019-04-07T12:52:29.770Z,16.05
2019-04-07T12:55:15.376Z,18.02
2019-04-07T12:57:47.762Z,15.78
2019-04-07T13:00:51.738Z,18.15
2019-04-07T13:03:08.671Z,18.25
2019-04-07T13:05:59.103Z,18.85
2019-04-07T13:08:46.827Z,16.90
2019-04-07T13:11:40.220Z,17.57
2019-04-07T13:14:15.254Z,19.42
2019-04-07T13:16:46.365Z,17.02
2019-04-07T13:19:19.930Z,20.08
2019-04-07T13:22:04.171Z,20.12
2019-04-07T13:24:38.840Z,16.70
2019-04-07T13:27:08.041Z,17.60
2019-04-07T13:29:45.533Z,16.20
2019-04-07T13:32:19.218Z,17.30
2019-04-07T13:35:02.160Z,21.20
2019-04-07T13:37:50.050Z,20.27
2019-04-07T13:40:21.760Z,16.95
2019-04-07T13:42:58.059Z,16.32
2019-04-07T13:45:34.456Z,17.65
2019-04-07T13:48:15.798Z,18.48
2019-04-07T13:50:46.814Z,19.65
2019-04-07T13:53:26.972Z,17.57
2019-04-07T13:55:57.240Z,19.52
2019-04-07T13:58:31.039Z,30.55
2019-04-07T14:01:10.716Z,27.30
2019-04-07T14:03:45.151Z,31.42
2019-04-07T14:06:28.355Z,27.22
2019-04-07T14:09:02.569Z,31.40
2019-04-07T14:11:52.470Z,27.67
2019-04-07T14:14:30.323Z,24.60
2019-04-07T14:17:13.215Z,25.62
2019-04-07T14:19:50.913Z,39.33
2019-04-07T14:22:28.121Z,31.50
2019-04-07T14:24:59.169Z,32.73
2019-04-07T14:27:47.179Z,21.35
2019-04-07T14:30:35.458Z,18.87
2019-04-07T14:33:23.000Z,19.07
2019-04-07T14:35:58.154Z,30.70
2019-04-07T14:38:41.939Z,22.20
2019-04-07T14:41:30.144Z,21.20
2019-04-07T14:44:17.306Z,20.52
2019-04-07T14:46:48.997Z,21.45
2019-04-07T14:49:20.061Z,22.55
2019-04-07T14:51:57.070Z,19.10
2019-04-07T14:54:28.233Z,22.42
2019-04-07T14:57:09.381Z,21.05
2019-04-07T14:59:58.902Z,22.32
2019-04-07T15:02:29.112Z,20.25
2019-04-07T15:05:15.954Z,20.75
2019-04-07T15:07:51.463Z,25.82
2019-04-07T15:10:22.410Z,20.37
2019-04-07T15:12:53.421Z,21.95
2019-04-07T15:15:23.653Z,17.07
2019-04-07T15:17:53.143Z,21.25
2019-04-07T15:20:22.461Z,20.90
2019-04-07T15:22:52.921Z,22.42
2019-04-07T15:25:22.668Z,18.02
2019-04-07T15:27:55.261Z,17.75
2019-04-07T15:30:23.246Z,22.50
2019-04-07T15:32:52.554Z,20.55
2019-04-07T15:35:22.240Z,21.70
2019-04-07T15:37:52.467Z,23.62
2019-04-07T15:40:22.063Z,20.20
2019-04-07T15:42:51.363Z,20.45
2019-04-07T15:45:21.666Z,21.20
2019-04-07T15:47:53.863Z,19.50
2019-04-07T15:50:23.070Z,17.30
2019-04-07T15:52:52.758Z,22.87
2019-04-07T15:55:28.313Z,20.20
2019-04-07T15:57:54.892Z,20.40
2019-04-07T16:00:24.268Z,22.02
2019-04-07T16:02:54.820Z,19.00
2019-04-07T16:05:24.345Z,19.45
2019-04-07T16:07:55.417Z,17.92
2019-04-07T16:10:24.799Z,19.75
2019-04-07T16:12:57.675Z,20.08
2019-04-07T16:15:25.958Z,20.62
2019-04-07T16:17:55.615Z,19.57
2019-04-07T16:20:31.622Z,21.15
2019-04-07T16:22:56.384Z,21.05
2019-04-07T16:25:27.873Z,21.82
2019-04-07T16:27:56.957Z,20.15
2019-04-07T16:30:26.336Z,20.88
2019-04-07T16:33:00.255Z,19.98
2019-04-07T16:35:27.760Z,21.97
2019-04-07T16:37:58.425Z,18.92
2019-04-07T16:40:28.311Z,27.75
2019-04-07T16:43:09.302Z,30.15
2019-04-07T16:45:29.343Z,29.00
2019-04-07T16:47:58.867Z,24.87
2019-04-07T16:50:28.244Z,26.75
2019-04-07T16:52:57.573Z,22.65
2019-04-07T16:55:37.240Z,23.25
2019-04-07T16:58:08.420Z,20.52
2019-04-07T17:00:38.415Z,22.62
2019-04-07T17:03:10.074Z,22.82
2019-04-07T17:05:39.797Z,24.30
2019-04-07T17:08:09.221Z,20.95
2019-04-07T17:10:39.157Z,20.55
2019-04-07T17:13:17.871Z,20.85
2019-04-07T17:15:41.773Z,21.65
2019-04-07T17:18:31.976Z,20.43
2019-04-07T17:21:02.299Z,24.65
2019-04-07T17:23:32.390Z,20.82
2019-04-07T17:26:04.806Z,19.55
2019-04-07T17:28:33.508Z,23.00
2019-04-07T17:31:03.535Z,22.45
2019-04-07T17:33:36.837Z,18.90
2019-04-07T17:36:04.040Z,23.15
2019-04-07T17:38:50.839Z,26.60
2019-04-07T17:41:20.258Z,21.00
2019-04-07T17:43:59.761Z,22.75
2019-04-07T17:46:47.916Z,21.50
2019-04-07T17:49:30.884Z,22.35
2019-04-07T17:52:12.817Z,22.95
2019-04-07T17:54:43.851Z,24.05
2019-04-07T17:57:36.601Z,22.73
2019-04-07T18:00:21.564Z,22.93
2019-04-07T18:02:56.875Z,24.25
2019-04-07T18:05:29.246Z,25.75
2019-04-07T18:08:10.215Z,26.95
2019-04-07T18:10:50.742Z,24.25
2019-04-07T18:13:24.776Z,24.72
2019-04-07T18:16:12.316Z,29.07
2019-04-07T18:18:59.554Z,23.47
2019-04-07T18:21:51.678Z,24.37
2019-04-07T18:24:19.364Z,25.20
2019-04-07T18:26:50.376Z,24.25
2019-04-07T18:29:29.371Z,28.73
2019-04-07T18:32:00.117Z,29.72
2019-04-07T18:34:43.356Z,26.87
2019-04-07T18:37:36.473Z,25.15
2019-04-07T18:40:14.383Z,26.60
2019-04-07T18:43:04.276Z,33.90
2019-04-07T18:45:44.790Z,30.43
2019-04-07T18:48:22.736Z,29.80
2019-04-07T18:50:55.085Z,30.60
2019-04-07T18:53:31.899Z,25.50
2019-04-07T18:56:15.254Z,27.32
2019-04-07T18:58:52.603Z,24.87
2019-04-07T19:01:40.984Z,25.80
2019-04-07T19:04:24.196Z,28.30
2019-04-07T19:06:54.087Z,26.55
2019-04-07T19:09:28.306Z,29.75
2019-04-07T19:12:05.860Z,30.62
2019-04-07T19:14:50.371Z,31.70
2019-04-07T19:17:21.726Z,28.27
2019-04-07T19:19:53.188Z,30.17
2019-04-07T19:22:32.863Z,30.60
2019-04-07T19:25:11.369Z,27.02
2019-04-07T19:27:57.587Z,29.75
2019-04-07T19:30:37.029Z,26.60
2019-04-07T19:33:08.926Z,26.87
2019-04-07T19:35:59.254Z,25.57
2019-04-07T19:38:39.888Z,28.35
2019-04-07T19:41:16.768Z,28.95
2019-04-07T19:43:48.011Z,26.95
2019-04-07T19:46:36.902Z,23.98
2019-04-07T19:49:21.546Z,26.15
2019-04-07T19:51:50.840Z,30.43
2019-04-07T19:54:24.958Z,29.40
2019-04-07T19:56:58.773Z,30.40
2019-04-07T19:59:42.891Z,28.23
2019-04-07T20:02:17.476Z,27.15
2019-04-07T20:05:00.539Z,27.60
2019-04-07T20:07:50.406Z,26.70
2019-04-07T20:10:24.476Z,27.48
2019-04-07T20:12:54.631Z,29.30
2019-04-07T20:15:38.992Z,28.87
2019-04-07T20:18:08.516Z,33.80
2019-04-07T20:20:53.531Z,29.40
2019-04-07T20:23:37.088Z,29.23
2019-04-07T20:26:21.418Z,28.90
2019-04-07T20:29:05.856Z,25.70
2019-04-07T20:31:34.452Z,25.17
2019-04-07T20:34:06.165Z,32.58
2019-04-07T20:36:38.009Z,28.95
2019-04-07T20:39:11.488Z,33.20
2019-04-07T20:41:54.705Z,30.45
2019-04-07T20:44:38.173Z,29.35
2019-04-07T20:47:09.126Z,29.72
2019-04-07T20:49:43.612Z,31.87
2019-04-07T20:52:30.091Z,29.85
2019-04-07T20:55:09.976Z,29.27
2019-04-07T20:57:46.535Z,26.90
2019-04-07T21:00:37.260Z,27.35
2019-04-07T21:03:25.137Z,27.98
2019-04-07T21:05:55.972Z,29.82
2019-04-07T21:08:30.214Z,26.20
2019-04-07T21:10:59.807Z,31.65
2019-04-07T21:13:37.433Z,27.60
2019-04-07T21:16:08.533Z,30.10
2019-04-07T21:18:42.359Z,27.35
2019-04-07T21:21:13.891Z,28.40
2019-04-07T21:23:57.360Z,28.02
2019-04-07T21:26:37.642Z,29.72
2019-04-07T21:29:10.982Z,28.70
2019-04-07T21:31:53.474Z,30.17
2019-04-07T21:34:40.681Z,30.50
2019-04-07T21:37:23.504Z,29.23
2019-04-07T21:39:54.501Z,33.53
2019-04-07T21:42:28.362Z,29.42
2019-04-07T21:45:27.816Z,30.60
2019-04-07T21:47:48.637Z,32.13
2019-04-07T21:50:22.308Z,34.00
2019-04-07T21:52:55.301Z,29.65
2019-04-07T21:55:25.371Z,31.20
2019-04-07T21:57:58.148Z,29.70
2019-04-07T22:00:45.520Z,31.23
2019-04-07T22:03:33.215Z,27.00
2019-04-07T22:06:19.270Z,29.63
2019-04-07T22:09:05.085Z,28.70
2019-04-07T22:11:34.690Z,29.90
2019-04-07T22:14:07.293Z,30.52
2019-04-07T22:16:35.487Z,32.78
2019-04-07T22:19:10.258Z,27.98
2019-04-07T22:21:36.230Z,28.20
2019-04-07T22:24:06.815Z,30.95
2019-04-07T22:26:37.068Z,32.30
2019-04-07T22:29:07.664Z,27.95
2019-04-07T22:31:46.112Z,28.15
2019-04-07T22:34:16.525Z,30.30
2019-04-07T22:36:47.892Z,28.40
2019-04-07T22:39:17.190Z,29.32
2019-04-07T22:41:46.579Z,29.72
2019-04-07T22:44:19.838Z,28.83
2019-04-07T22:46:49.460Z,31.95
2019-04-07T22:49:18.092Z,31.75
2019-04-07T22:51:49.530Z,36.42
2019-04-07T22:54:18.816Z,34.05
2019-04-07T22:56:48.800Z,30.60
2019-04-07T22:59:18.223Z,29.85
2019-04-07T23:01:47.576Z,33.02
2019-04-07T23:04:16.960Z,31.50
2019-04-07T23:06:46.270Z,29.32
2019-04-07T23:09:15.881Z,32.50
2019-04-07T23:11:46.128Z,33.80
2019-04-07T23:14:15.794Z,32.23
2019-04-07T23:16:45.192Z,33.95
2019-04-07T23:19:14.508Z,32.05
2019-04-07T23:21:43.800Z,35.28
2019-04-07T23:24:13.231Z,36.20
2019-04-07T23:26:42.633Z,30.25
2019-04-07T23:29:12.175Z,30.12
2019-04-07T23:31:42.047Z,35.63
2019-04-07T23:34:11.373Z,30.72
2019-04-07T23:36:40.941Z,38.25
2019-04-07T23:39:11.114Z,33.65
2019-04-07T23:41:41.405Z,33.98
2019-04-07T23:44:10.787Z,32.98
2019-04-07T23:46:40.142Z,34.33
2019-04-07T23:49:09.957Z,35.00
2019-04-07T23:51:39.408Z,32.83
2019-04-07T23:54:11.237Z,40.40
2019-04-07T23:56:43.618Z,38.15
2019-04-07T23:59:13.194Z,38.00
